Time;durP1;ratioP1;P1;durP2;ratioP2;P2;SDS_P1;SDS_P2;PMS_P1;PMS_P2;Temp;Humidity;BMP_temperature;BMP_pressure;BME280_temperature;BME280_humidity;BME280_pressure;Samples;Min_cycle;Max_cycle;Signal;HPM_P1;HPM_P2
2023/05/29 00:01:42;;;;;;;0.40;0.40;;;21.10;53.60;;;21.58;37.61;95040.13;5033975;28;20323;-46
2023/05/29 00:04:11;;;;;;;0.57;0.57;;;21.10;53.80;;;21.57;37.43;95035.03;5033953;28;20646;-46
2023/05/29 00:06:39;;;;;;;0.50;0.50;;;21.10;53.80;;;21.56;37.59;95036.06;5034020;28;20227;-45
2023/05/29 00:09:06;;;;;;;0.50;0.50;;;21.10;53.90;;;21.54;37.52;95043.53;5049626;28;20267;-46
2023/05/29 00:11:33;;;;;;;0.47;0.47;;;21.10;53.90;;;21.52;37.91;95034.97;5033955;28;20231;-46
2023/05/29 00:14:00;;;;;;;0.50;0.50;;;21.00;53.80;;;21.50;37.80;95039.78;5033835;28;20253;-46
2023/05/29 00:16:29;;;;;;;0.50;0.50;;;21.00;53.90;;;21.49;37.92;95040.81;5033886;28;20201;-47
2023/05/29 00:18:57;;;;;;;0.43;0.43;;;21.00;55.20;;;21.47;37.86;95037.59;5034274;28;20203;-45
2023/05/29 00:21:25;;;;;;;0.30;0.30;;;21.00;54.00;;;21.45;37.69;95037.88;5033700;28;20207;-45
2023/05/29 00:23:52;;;;;;;0.40;0.40;;;21.00;54.00;;;21.42;37.98;95039.19;5033628;28;20638;-46
2023/05/29 00:26:19;;;;;;;0.40;0.40;;;21.00;54.00;;;21.40;37.89;95035.97;5033713;28;20202;-46
2023/05/29 00:28:52;;;;;;;0.50;0.50;;;20.90;54.00;;;21.41;37.68;95036.75;5050178;28;20200;-48
2023/05/29 00:31:20;;;;;;;0.40;0.40;;;20.90;54.00;;;21.38;37.96;95032.75;5033548;28;20243;-46
2023/05/29 00:33:47;;;;;;;0.40;0.40;;;20.90;54.10;;;21.36;37.81;95028.72;5034133;28;20268;-46
2023/05/29 00:36:15;;;;;;;0.40;0.40;;;20.90;54.10;;;21.34;37.96;95028.19;5033549;28;20194;-45
2023/05/29 00:38:42;;;;;;;0.40;0.40;;;20.90;54.20;;;21.33;38.27;95026.59;5049157;28;20303;-49
2023/05/29 00:41:15;;;;;;;0.40;0.40;;;20.80;54.00;;;21.30;38.06;95027.91;5049104;28;20264;-47
2023/05/29 00:43:43;;;;;;;0.40;0.40;;;20.80;54.10;;;21.28;38.30;95027.34;5033404;28;20266;-49
2023/05/29 00:46:13;;;;;;;0.50;0.50;;;20.80;54.10;;;21.25;37.89;95026.00;5033947;28;20222;-46
2023/05/29 00:48:42;;;;;;;0.50;0.50;;;20.80;54.20;;;21.23;37.95;95022.78;5016208;28;20349;-45
2023/05/29 00:51:12;;;;;;;0.40;0.40;;;20.80;54.20;;;21.23;37.72;95022.78;5032400;28;20204;-47
2023/05/29 00:53:42;;;;;;;0.45;0.45;;;20.70;54.10;;;21.20;38.22;95020.66;5033115;28;20200;-46
2023/05/29 00:56:10;;;;;;;0.50;0.50;;;20.80;54.30;;;21.19;38.32;95023.53;5033037;28;20184;-45
2023/05/29 00:58:37;;;;;;;0.40;0.40;;;20.70;54.20;;;21.18;37.81;95019.25;5032374;28;20195;-45
2023/05/29 01:01:05;;;;;;;0.40;0.40;;;20.70;54.20;;;21.15;37.87;95020.59;5032301;28;20522;-47
2023/05/29 01:03:33;;;;;;;0.40;0.40;;;20.70;54.20;;;21.13;38.10;95022.72;5032023;28;20208;-45
2023/05/29 01:06:01;;;;;;;0.40;0.40;;;20.70;54.20;;;21.12;38.13;95026.44;5016069;28;20200;-47
2023/05/29 01:08:28;;;;;;;0.30;0.30;;;20.70;54.20;;;21.09;37.88;95022.44;5032344;28;20195;-48
2023/05/29 01:11:08;;;;;;;0.40;0.40;;;20.60;54.10;;;21.08;37.97;95023.47;5049187;28;20209;-47
2023/05/29 01:13:38;;;;;;;0.40;0.40;;;20.60;54.30;;;21.06;38.14;95025.59;5032181;28;20266;-47
2023/05/29 01:16:35;;;;;;;0.40;0.40;;;20.60;54.20;;;21.01;38.09;95017.56;5032070;28;20590;-49
2023/05/29 01:19:38;;;;;;;0.40;0.40;;;20.60;54.30;;;20.95;38.40;95016.69;5032079;28;20206;-46
2023/05/29 01:22:15;;;;;;;0.50;0.50;;;20.60;54.30;;;20.95;38.56;95018.56;5031928;28;20227;-48
2023/05/29 01:25:15;;;;;;;0.50;0.50;;;20.60;54.30;;;20.90;38.59;95014.00;5016088;28;20192;-50
2023/05/29 01:27:47;;;;;;;0.50;0.50;;;20.50;54.20;;;20.89;38.43;95012.38;5032511;28;20191;-45
2023/05/29 01:30:16;;;;;;;0.60;0.60;;;20.50;54.20;;;20.87;38.67;95017.19;5015167;28;20235;-45
2023/05/29 01:32:43;;;;;;;0.47;0.47;;;20.50;54.40;;;20.86;38.32;95025.44;5032502;28;20207;-45
2023/05/29 01:35:14;;;;;;;0.50;0.50;;;20.50;54.40;;;20.85;38.60;95015.81;5031783;28;20233;-45
2023/05/29 01:37:41;;;;;;;0.50;0.50;;;20.50;54.40;;;20.83;38.56;95017.94;5032653;28;20246;-46
2023/05/29 01:40:09;;;;;;;0.57;0.57;;;20.40;54.30;;;20.83;38.05;95023.28;5032577;28;20278;-45
2023/05/29 01:42:36;;;;;;;0.40;0.40;;;20.40;54.30;;;20.79;38.29;95017.66;5032652;28;20265;-45
2023/05/29 01:45:06;;;;;;;0.40;0.40;;;20.40;54.40;;;20.78;38.11;95016.03;5032537;28;20214;-45
2023/05/29 01:47:34;;;;;;;0.70;0.70;;;20.40;55.60;;;20.76;38.55;95008.31;5031550;27;20235;-46
2023/05/29 01:50:04;;;;;;;0.40;0.40;;;20.40;54.40;;;20.74;38.71;95012.28;5048116;28;20212;-45
2023/05/29 01:52:32;;;;;;;0.50;0.50;;;20.40;54.60;;;20.71;38.51;95005.53;5032738;28;20286;-45
2023/05/29 01:54:59;;;;;;;0.40;0.40;;;20.30;54.40;;;20.71;38.43;95013.53;5031432;28;20189;-45
2023/05/29 01:57:26;;;;;;;0.40;0.40;;;20.30;54.40;;;20.69;38.33;95007.69;5048798;28;20207;-45
2023/05/29 01:59:54;;;;;;;0.40;0.40;;;20.30;54.40;;;20.66;38.68;95013.50;5047921;28;20309;-45
2023/05/29 02:02:24;;;;;;;0.40;0.40;;;20.30;54.50;;;20.66;38.67;95004.72;5047858;28;20290;-45
2023/05/29 02:04:51;;;;;;;0.50;0.50;;;20.30;54.60;;;20.63;38.13;95009.47;5031184;28;20202;-46
2023/05/29 02:07:19;;;;;;;0.50;0.50;;;20.20;54.50;;;20.63;38.81;95011.34;5032402;28;20201;-46
2023/05/29 02:09:46;;;;;;;0.40;0.40;;;20.30;54.50;;;20.61;38.58;94998.25;5032455;28;20244;-49
2023/05/29 02:12:15;;;;;;;0.40;0.40;;;20.20;54.40;;;20.60;38.77;95001.19;5047746;28;20211;-45
2023/05/29 02:14:42;;;;;;;0.50;0.50;;;20.20;54.50;;;20.59;38.30;94999.56;5032093;28;20219;-46
2023/05/29 02:17:10;;;;;;;0.50;0.50;;;20.20;54.50;;;20.56;38.68;94998.22;5047704;28;20202;-45
2023/05/29 02:19:38;;;;;;;0.52;0.52;;;20.20;54.60;;;20.54;38.95;94997.66;5032590;28;20196;-47
2023/05/29 02:22:05;;;;;;;0.50;0.50;;;20.10;54.50;;;20.54;38.89;95004.88;5047603;28;20222;-47
2023/05/29 02:24:34;;;;;;;0.45;0.45;;;20.20;54.70;;;20.52;38.54;94998.97;5047453;28;20202;-45
2023/05/29 02:27:01;;;;;;;0.50;0.50;;;20.10;54.60;;;20.50;38.94;95012.56;5032233;28;20681;-45
2023/05/29 02:29:28;;;;;;;0.50;0.50;;;20.20;54.80;;;20.47;38.60;95003.22;5047849;28;20507;-49
2023/05/29 02:31:55;;;;;;;0.60;0.60;;;20.10;54.60;;;20.46;38.56;95004.25;5047361;28;20245;-46
2023/05/29 02:34:22;;;;;;;0.38;0.38;;;20.10;54.70;;;20.44;38.57;95000.25;5031694;28;20200;-45
2023/05/29 02:36:54;;;;;;;0.50;0.50;;;20.10;54.80;;;20.42;39.09;95000.50;5047507;28;20203;-45
2023/05/29 02:39:21;;;;;;;0.50;0.50;;;20.00;54.80;;;20.38;38.98;94999.38;5032123;28;20289;-47
2023/05/29 02:41:48;;;;;;;0.40;0.40;;;20.10;54.80;;;;;;5032877;28;20663;-44
2023/05/29 02:44:15;;;;;;;0.43;0.43;;;20.10;54.80;;;20.33;38.73;94987.88;5035194;28;20226;-45
2023/05/29 02:46:42;;;;;;;0.43;0.43;;;20.00;54.80;;;20.31;38.74;94988.13;5034354;27;20614;-45
2023/05/29 02:49:09;;;;;;;0.50;0.50;;;20.00;54.70;;;20.29;38.86;94984.91;5050862;28;20208;-50
2023/05/29 02:51:37;;;;;;;0.40;0.40;;;20.00;54.80;;;20.23;38.84;94986.72;5050878;28;20207;-46
2023/05/29 02:54:04;;;;;;;0.40;0.40;;;20.00;54.90;;;20.21;39.13;94990.69;5050584;28;20552;-45
2023/05/29 02:56:31;;;;;;;0.50;0.50;;;20.00;54.90;;;20.19;39.03;94998.13;5035149;28;20199;-45
2023/05/29 02:58:58;;;;;;;0.40;0.40;;;19.90;54.80;;;20.14;39.26;94989.03;5035346;28;20573;-46
2023/05/29 03:01:25;;;;;;;0.40;0.40;;;19.90;54.90;;;20.13;39.42;94987.41;5017763;28;20279;-45
2023/05/29 03:03:55;;;;;;;0.45;0.45;;;19.90;54.90;;;20.10;39.33;94985.28;5017784;28;20211;-47
2023/05/29 03:06:22;;;;;;;0.40;0.40;;;19.80;54.80;;;20.08;39.33;94994.53;5051491;28;20195;-49
2023/05/29 03:08:49;;;;;;;0.40;0.40;;;19.80;54.80;;;20.06;39.38;94992.13;5050575;28;20645;-47
2023/05/29 03:11:17;;;;;;;0.57;0.57;;;19.80;54.80;;;20.03;39.37;94992.66;5033932;28;20627;-45
2023/05/29 03:13:46;;;;;;;0.50;0.50;;;19.80;54.90;;;19.99;39.43;94991.53;5017594;28;20208;-46
2023/05/29 03:16:13;;;;;;;0.50;0.50;;;19.70;54.90;;;19.96;39.00;94990.16;5034393;28;20209;-45
2023/05/29 03:18:43;;;;;;;0.40;0.40;;;19.70;55.00;;;19.94;39.15;94988.81;5033847;28;20210;-44
2023/05/29 03:21:11;;;;;;;0.40;0.40;;;19.70;55.10;;;19.92;39.45;94988.25;5050445;28;20236;-45
2023/05/29 03:23:38;;;;;;;0.40;0.40;;;19.70;55.10;;;19.91;39.06;94990.09;5033521;28;20324;-44
2023/05/29 03:26:05;;;;;;;0.50;0.50;;;19.60;55.00;;;19.90;39.35;94993.03;5034675;28;20685;-44
2023/05/29 03:28:35;;;;;;;0.40;0.40;;;19.60;55.10;;;19.87;39.08;94986.31;5033679;28;20197;-44
2023/05/29 03:31:05;;;;;;;0.50;0.50;;;19.60;55.10;;;19.86;39.66;94990.06;5033465;28;20233;-44
2023/05/29 03:33:32;;;;;;;0.50;0.50;;;19.60;55.10;;;19.86;39.47;94991.91;5050034;28;20270;-44
2023/05/29 03:36:07;;;;;;;0.50;0.50;;;19.50;55.10;;;19.82;39.35;94988.91;5050755;28;20206;-47
2023/05/29 03:38:35;;;;;;;0.50;0.50;;;19.50;55.20;;;19.76;39.80;94990.72;5034423;28;20291;-44
2023/05/29 03:41:03;;;;;;;0.40;0.40;;;19.50;55.20;;;19.75;39.88;95004.25;5050151;28;20200;-44
2023/05/29 03:43:30;;;;;;;0.40;0.40;;;19.50;55.30;;;19.72;39.85;95000.22;5049816;28;20315;-44
2023/05/29 03:45:57;;;;;;;0.50;0.50;;;19.50;55.40;;;19.70;39.88;95002.34;5050045;28;20199;-44
2023/05/29 03:48:27;;;;;;;0.50;0.50;;;19.50;55.50;;;19.68;40.17;94997.25;5033439;28;20196;-44
2023/05/29 03:50:55;;;;;;;0.60;0.60;;;19.50;55.50;;;19.66;39.57;94994.06;5034348;28;20246;-44
2023/05/29 03:53:29;;;;;;;0.45;0.45;;;19.40;55.50;;;19.67;40.17;95005.47;5033152;28;20639;-44
2023/05/29 03:55:56;;;;;;;0.50;0.50;;;19.40;55.60;;;19.64;40.06;95003.31;5050390;28;20205;-44
2023/05/29 03:58:23;;;;;;;0.50;0.50;;;19.40;55.60;;;19.61;39.90;94996.63;5034421;28;20278;-44
2023/05/29 04:00:52;;;;;;;0.50;0.50;;;19.40;55.90;;;19.60;39.97;95002.19;5033203;28;20220;-44
2023/05/29 04:03:20;;;;;;;0.50;0.50;;;19.40;55.90;;;19.58;40.32;94999.78;5049700;28;20217;-49
2023/05/29 04:05:47;;;;;;;0.50;0.50;;;19.40;55.90;;;19.56;40.06;95007.22;5049631;28;20195;-44
2023/05/29 04:08:15;;;;;;;0.50;0.50;;;19.40;56.00;;;19.55;40.07;95005.59;5033100;28;20262;-44
2023/05/29 04:10:43;;;;;;;0.50;0.50;;;19.30;56.00;;;19.55;40.21;95010.13;5033023;28;20697;-44
2023/05/29 04:13:10;;;;;;;0.50;0.50;;;19.40;56.20;;;19.55;40.55;95015.44;5034505;28;20196;-44
2023/05/29 04:15:38;;;;;;;0.52;0.52;;;19.40;57.50;;;19.52;40.86;95014.88;5033739;28;20698;-44
2023/05/29 04:18:05;;;;;;;0.43;0.43;;;19.40;56.30;;;19.53;40.76;95013.03;5049506;28;20604;-44
2023/05/29 04:20:33;;;;;;;0.50;0.50;;;19.30;56.20;;;19.53;40.32;95015.69;5032894;28;20204;-44
2023/05/29 04:23:00;;;;;;;0.40;0.40;;;19.40;56.40;;;19.54;40.54;95011.97;5033772;28;20280;-44
2023/05/29 04:25:27;;;;;;;0.40;0.40;;;19.30;56.30;;;19.53;40.38;95015.69;5016369;28;20193;-45
2023/05/29 04:27:55;;;;;;;0.50;0.50;;;19.40;56.50;;;19.56;40.32;95017.84;5033936;28;20207;-46
2023/05/29 04:30:22;;;;;;;0.50;0.50;;;19.30;56.40;;;19.55;40.78;95018.91;5049156;28;20233;-44
2023/05/29 04:32:52;;;;;;;0.50;0.50;;;19.40;56.70;;;19.55;40.49;95020.75;5033563;28;20237;-47
2023/05/29 04:35:21;;;;;;;0.40;0.40;;;19.30;56.70;;;19.54;41.20;95027.13;5032883;28;20196;-45
2023/05/29 04:38:02;;;;;;;0.52;0.52;;;19.40;56.90;;;19.50;41.01;95024.94;5032968;28;20209;-48
2023/05/29 04:40:32;;;;;;;0.50;0.50;;;19.30;56.90;;;19.49;41.09;95036.66;5049166;28;20598;-45
2023/05/29 04:43:00;;;;;;;0.40;0.40;;;19.40;57.00;;;19.48;41.02;95027.06;5033417;28;20213;-45
2023/05/29 04:45:30;;;;;;;0.50;0.50;;;19.40;57.20;;;19.48;41.03;95040.38;5048987;28;20234;-44
2023/05/29 04:47:57;;;;;;;0.50;0.50;;;19.30;57.20;;;19.48;41.12;95039.53;5049029;28;20202;-45
2023/05/29 04:50:29;;;;;;;0.50;0.50;;;19.30;57.30;;;19.47;41.64;95045.91;5032445;28;20232;-43
2023/05/29 04:52:57;;;;;;;0.50;0.50;;;19.30;57.40;;;19.47;41.86;95045.91;5049032;28;20222;-45
2023/05/29 04:55:24;;;;;;;0.50;0.50;;;19.30;57.40;;;19.46;41.32;95045.13;5032684;28;20209;-46
2023/05/29 04:57:51;;;;;;;0.40;0.40;;;19.30;57.50;;;19.45;41.58;95046.16;5048844;28;20209;-47
2023/05/29 05:00:19;;;;;;;0.50;0.50;;;19.40;57.70;;;19.45;41.93;95051.47;5032278;28;20203;-48
2023/05/29 05:02:46;;;;;;;0.50;0.50;;;19.30;57.60;;;19.46;41.45;95050.44;5048787;28;20267;-48
2023/05/29 05:05:14;;;;;;;0.50;0.50;;;19.30;57.70;;;19.46;42.21;95050.44;5031073;28;20578;-44
2023/05/29 05:07:42;;;;;;;0.40;0.40;;;19.40;57.90;;;19.46;42.09;95055.75;5032183;28;20213;-44
2023/05/29 05:10:09;;;;;;;0.40;0.40;;;19.40;58.00;;;19.48;42.00;95055.50;5048705;28;20253;-44
2023/05/29 05:12:36;;;;;;;0.50;0.50;;;19.40;58.10;;;19.47;41.75;95062.69;5048677;28;20693;-44
2023/05/29 05:15:05;;;;;;;0.50;0.50;;;19.40;58.20;;;19.48;42.10;95056.31;5048457;28;20205;-44
2023/05/29 05:17:33;;;;;;;0.40;0.40;;;19.30;58.10;;;19.50;42.44;95061.41;5032006;28;20300;-44
2023/05/29 05:20:00;;;;;;;0.40;0.40;;;19.40;58.30;;;19.50;42.29;95062.19;5031957;28;20258;-43
2023/05/29 05:22:27;;;;;;;0.47;0.47;;;19.40;58.40;;;19.52;42.13;95062.75;5031864;28;20218;-43
2023/05/29 05:24:56;;;;;;;0.50;0.50;;;19.30;58.40;;;19.52;42.60;95062.75;5048376;28;20255;-44
2023/05/29 05:27:24;;;;;;;0.70;0.70;;;19.40;58.60;;;19.52;42.34;95062.75;5016546;28;20200;-44
2023/05/29 05:29:52;;;;;;;0.50;0.50;;;19.40;58.70;;;19.52;42.39;95057.44;5048245;28;20211;-44
2023/05/29 05:32:19;;;;;;;0.40;0.40;;;19.40;58.80;;;19.54;42.48;95051.88;5048431;28;20205;-45
2023/05/29 05:34:53;;;;;;;0.43;0.43;;;19.40;58.90;;;19.57;42.65;95066.56;5032126;28;20251;-44
2023/05/29 05:37:23;;;;;;;0.55;0.55;;;19.40;59.00;;;19.58;42.57;95063.66;5032961;28;20588;-44
2023/05/29 05:39:50;;;;;;;0.50;0.50;;;19.40;60.10;;;19.59;43.30;95070.59;5032561;28;20199;-49
2023/05/29 05:42:17;;;;;;;0.50;0.50;;;19.40;60.20;;;19.60;42.87;95071.38;5015351;28;20232;-44
2023/05/29 05:44:50;;;;;;;0.50;0.50;;;19.50;59.30;;;19.60;43.41;95072.16;5048077;28;20194;-46
2023/05/29 05:47:18;;;;;;;0.40;0.40;;;19.50;59.40;;;19.63;43.33;95076.22;5048222;28;20536;-46
2023/05/29 05:49:46;;;;;;;0.50;0.50;;;19.50;59.50;;;19.64;43.21;95075.97;5031575;28;20625;-44
2023/05/29 05:52:13;;;;;;;0.40;0.40;;;19.50;59.70;;;19.66;43.64;95073.88;5031550;28;20662;-45
2023/05/29 05:54:40;;;;;;;0.50;0.50;;;19.60;59.80;;;19.68;43.21;95079.75;5032656;28;20198;-49
2023/05/29 05:57:07;;;;;;;0.40;0.40;;;19.50;59.80;;;19.70;43.80;95082.19;5031447;28;20232;-46
2023/05/29 05:59:37;;;;;;;0.40;0.40;;;19.60;60.00;;;19.73;44.03;95083.53;5031783;28;20718;-45
2023/05/29 06:02:05;;;;;;;0.40;0.40;;;19.60;60.00;;;19.76;43.80;95088.34;5048062;28;20253;-45
2023/05/29 06:04:35;;;;;;;0.50;0.50;;;19.60;60.00;;;19.78;43.46;95096.91;5031335;28;20224;-47
2023/05/29 06:07:03;;;;;;;0.50;0.50;;;19.60;60.00;;;19.78;44.03;95078.28;5032781;28;20527;-47
2023/05/29 06:09:30;;;;;;;0.50;0.50;;;19.60;60.00;;;19.81;43.61;95086.59;5031462;28;20260;-45
2023/05/29 06:11:57;;;;;;;0.40;0.40;;;19.70;60.10;;;19.87;43.56;95089.34;5047926;28;20210;-46
2023/05/29 06:14:25;;;;;;;0.40;0.40;;;19.70;60.10;;;19.88;43.91;95089.09;5047817;28;20199;-47
2023/05/29 06:16:53;;;;;;;0.40;0.40;;;19.80;60.10;;;19.90;44.10;95092.31;5031912;28;20191;-48
2023/05/29 06:19:20;;;;;;;0.40;0.40;;;19.80;60.10;;;19.93;43.65;95083.84;5014982;28;20636;-49
2023/05/29 06:21:54;;;;;;;0.40;0.40;;;19.80;60.00;;;19.96;43.98;95086.00;5031797;28;20241;-49
2023/05/29 06:24:22;;;;;;;0.50;0.50;;;19.80;59.90;;;20.02;43.41;95086.06;5031174;28;20222;-49
2023/05/29 06:26:50;;;;;;;0.50;0.50;;;19.80;59.90;;;20.04;43.69;95091.94;5047593;28;20195;-48
2023/05/29 06:29:18;;;;;;;0.50;0.50;;;19.90;59.90;;;20.06;43.19;95093.31;5031055;28;20208;-48
2023/05/29 06:31:46;;;;;;;0.40;0.40;;;19.90;59.70;;;20.08;43.17;95085.88;5030911;28;20293;-50
2023/05/29 06:34:13;;;;;;;0.50;0.50;;;19.90;59.50;;;20.10;43.31;95091.78;5030131;28;20617;-47
2023/05/29 06:36:41;;;;;;;0.40;0.40;;;20.00;59.40;;;20.11;43.34;95093.38;5099900;28;20203;-46
2023/05/29 06:39:10;;;;;;;0.40;0.40;;;20.00;59.40;;;20.14;43.41;95092.06;5031436;28;20556;-46
2023/05/29 06:41:37;;;;;;;0.40;0.40;;;20.00;59.30;;;20.18;42.94;95098.53;5030149;28;20230;-47
2023/05/29 06:44:05;;;;;;;0.40;0.40;;;20.00;59.20;;;20.19;43.12;95094.81;5011547;28;20224;-50
2023/05/29 06:46:33;;;;;;;0.47;0.47;;;20.00;59.20;;;20.21;43.31;95098.00;5021693;28;20201;-45
2023/05/29 06:49:01;;;;;;;0.40;0.40;;;20.10;59.30;;;20.24;42.65;95105.53;5010908;28;20207;-47
2023/05/29 06:51:33;;;;;;;0.45;0.45;;;20.10;59.20;;;20.27;42.69;95102.34;5017593;28;20211;-45
2023/05/29 06:54:33;;;;;;;0.40;0.40;;;20.10;59.20;;;20.29;42.81;95102.13;5001720;28;20213;-45
2023/05/29 06:57:00;;;;;;;0.50;0.50;;;20.10;59.20;;;20.31;43.29;95115.97;5011912;28;20192;-48
2023/05/29 06:59:38;;;;;;;0.50;0.50;;;20.20;59.10;;;20.35;43.22;95122.44;5011399;28;20192;-46
2023/05/29 07:02:07;;;;;;;0.43;0.43;;;20.20;59.00;;;20.36;42.48;95118.72;4995066;28;20205;-46
2023/05/29 07:04:34;;;;;;;0.50;0.50;;;20.20;59.00;;;20.39;43.00;95125.41;5019150;28;20223;-47
2023/05/29 07:07:02;;;;;;;0.50;0.50;;;20.30;59.10;;;20.42;42.94;95123.06;5039310;28;20615;-46
2023/05/29 07:09:29;;;;;;;0.43;0.43;;;20.20;58.90;;;20.44;42.72;95126.25;4994726;28;20207;-47
2023/05/29 07:11:56;;;;;;;0.43;0.43;;;20.30;59.10;;;20.48;42.99;95132.72;5014783;28;20204;-50
2023/05/29 07:14:24;;;;;;;0.47;0.47;;;20.30;59.10;;;20.51;42.77;95130.59;5012255;28;20233;-49
2023/05/29 07:16:52;;;;;;;0.40;0.40;;;20.40;59.20;;;20.54;43.08;95127.44;5021224;28;20208;-45
2023/05/29 07:19:19;;;;;;;0.50;0.50;;;20.40;59.30;;;20.58;42.97;95128.53;5022959;28;20195;-46
2023/05/29 07:21:49;;;;;;;0.47;0.47;;;20.40;59.10;;;20.59;43.09;95128.31;5015417;28;20207;-45
2023/05/29 07:24:19;;;;;;;0.40;0.40;;;20.40;59.10;;;20.62;42.63;95122.47;5011374;28;20341;-48
2023/05/29 07:26:46;;;;;;;0.57;0.57;;;20.50;59.20;;;20.64;42.67;95122.22;5010706;28;20207;-45
2023/05/29 07:29:14;;;;;;;0.40;0.40;;;20.50;59.10;;;20.69;42.90;95137.44;5025855;28;20198;-46
2023/05/29 07:31:42;;;;;;;0.50;0.50;;;20.50;59.10;;;20.70;42.93;95136.41;5033441;28;20231;-47
2023/05/29 07:34:10;;;;;;;0.60;0.60;;;20.50;59.00;;;20.73;42.86;95139.41;5024233;28;20631;-46
2023/05/29 07:37:06;;;;;;;0.40;0.40;;;20.60;59.00;;;20.74;42.44;95151.69;5017833;28;20243;-46
2023/05/29 07:39:35;;;;;;;0.40;0.40;;;20.60;58.80;;;20.75;42.69;95139.16;5021260;28;20205;-46
2023/05/29 07:42:13;;;;;;;0.43;0.43;;;20.60;58.70;;;20.79;42.30;95140.28;5039467;28;20323;-48
2023/05/29 07:44:42;;;;;;;0.50;0.50;;;20.60;58.60;;;20.82;42.36;95146.97;5033540;28;20224;-51
2023/05/29 07:47:10;;;;;;;0.40;0.40;;;20.60;58.70;;;20.85;42.70;95143.78;5016776;28;20200;-45
2023/05/29 07:49:44;;;;;;;0.40;0.40;;;20.70;60.00;;;20.88;42.67;95143.28;5033564;28;20211;-49
2023/05/29 07:52:11;;;;;;;0.40;0.40;;;20.70;58.70;;;20.89;42.61;95143.03;5033688;28;20205;-50
2023/05/29 07:54:39;;;;;;;0.52;0.52;;;20.70;58.60;;;20.93;42.07;95143.34;5034489;28;20199;-48
2023/05/29 07:57:09;;;;;;;0.45;0.45;;;20.70;58.60;;;20.97;42.07;95139.13;5033736;28;20260;-50
2023/05/29 07:59:41;;;;;;;0.43;0.43;;;20.80;58.40;;;20.97;41.74;95132.97;5043819;28;20262;-51
2023/05/29 08:02:09;;;;;;;0.40;0.40;;;20.80;58.00;;;20.99;41.76;95137.00;5018668;28;20200;-51
2023/05/29 08:04:54;;;;;;;0.30;0.30;;;20.80;58.00;;;21.00;41.98;95140.47;5013509;28;20223;-48
2023/05/29 08:07:23;;;;;;;0.40;0.40;;;20.80;58.00;;;21.03;42.14;95142.63;5013565;28;20213;-47
2023/05/29 08:09:50;;;;;;;0.40;0.40;;;20.80;58.10;;;21.05;41.68;95143.19;5013376;28;20201;-48
2023/05/29 08:12:17;;;;;;;0.40;0.40;;;20.90;58.00;;;21.07;41.70;95147.22;5013338;28;20203;-47
2023/05/29 08:14:45;;;;;;;0.38;0.38;;;20.90;58.00;;;21.09;41.91;95149.63;5014647;28;20202;-49
2023/05/29 08:17:13;;;;;;;0.40;0.40;;;20.90;58.10;;;21.11;42.02;95145.63;5029661;28;20204;-45
2023/05/29 08:19:41;;;;;;;0.40;0.40;;;20.90;58.00;;;21.14;41.64;95136.34;5034493;28;20669;-48
2023/05/29 08:22:11;;;;;;;0.43;0.43;;;20.90;58.00;;;21.17;41.87;95148.38;5034547;28;20225;-46
2023/05/29 08:24:39;;;;;;;0.40;0.40;;;21.00;58.00;;;21.20;41.70;95140.69;5033388;28;20727;-47
2023/05/29 08:27:06;;;;;;;0.50;0.50;;;21.00;58.00;;;21.24;41.86;95143.66;5033747;28;20197;-47
2023/05/29 08:29:36;;;;;;;0.47;0.47;;;21.00;58.00;;;21.25;41.56;95132.72;5033762;28;20299;-50
2023/05/29 08:32:04;;;;;;;0.50;0.50;;;21.00;57.80;;;21.28;41.93;95136.72;5033131;28;20193;-48
2023/05/29 08:34:31;;;;;;;0.40;0.40;;;21.10;57.80;;;21.31;41.52;95144.22;5033769;28;20257;-50
2023/05/29 08:36:58;;;;;;;0.40;0.40;;;21.10;57.90;;;21.34;41.30;95137.59;5034040;28;20213;-48
2023/05/29 08:39:26;;;;;;;0.40;0.40;;;21.10;57.80;;;21.36;41.66;95143.47;5033788;28;20210;-48
2023/05/29 08:42:07;;;;;;;0.50;0.50;;;21.10;57.70;;;21.37;41.65;95145.88;5033817;28;20235;-48
2023/05/29 08:44:35;;;;;;;0.50;0.50;;;21.20;57.70;;;21.40;41.15;95133.91;5033398;28;20243;-47
2023/05/29 08:47:03;;;;;;;0.38;0.38;;;21.20;57.50;;;21.43;41.21;95131.53;5032489;28;20200;-49
2023/05/29 08:49:42;;;;;;;0.40;0.40;;;21.20;57.50;;;21.46;41.44;95130.22;5032883;28;20277;-50
2023/05/29 08:52:16;;;;;;;0.40;0.40;;;21.20;57.40;;;21.50;41.22;95125.97;5032967;28;20185;-50
2023/05/29 08:54:44;;;;;;;0.40;0.40;;;21.30;57.50;;;21.52;41.39;95129.19;5049007;28;20291;-53
2023/05/29 08:57:13;;;;;;;0.43;0.43;;;21.30;57.60;;;21.52;41.30;95121.19;5033636;28;20503;-49
2023/05/29 08:59:43;;;;;;;0.32;0.32;;;21.30;57.40;;;21.58;41.00;95128.19;5033566;28;20202;-47
2023/05/29 09:02:12;;;;;;;0.30;0.30;;;21.40;57.50;;;21.61;41.05;95126.09;5033607;28;20194;-49
2023/05/29 09:04:44;;;;;;;0.32;0.32;;;21.40;57.50;;;21.63;40.76;95131.94;5032770;28;20226;-52
2023/05/29 09:07:12;;;;;;;0.47;0.47;;;21.40;57.40;;;21.64;41.34;95129.03;5033444;28;20191;-50
2023/05/29 09:09:40;;;;;;;0.40;0.40;;;21.40;57.30;;;21.68;41.06;95132.81;5032776;28;20276;-48
2023/05/29 09:12:09;;;;;;;0.30;0.30;;;21.50;57.30;;;21.72;40.92;95133.09;5033162;28;20547;-49
2023/05/29 09:14:42;;;;;;;0.35;0.35;;;21.50;57.40;;;21.75;41.25;95135.22;5032485;28;20225;-47
2023/05/29 09:17:11;;;;;;;0.50;0.50;;;21.50;57.30;;;21.75;40.81;95130.72;5031892;28;20600;-53
2023/05/29 09:19:42;;;;;;;0.47;0.47;;;21.50;57.40;;;21.81;40.77;95131.53;5033307;28;20218;-55
2023/05/29 09:22:15;;;;;;;0.30;0.30;;;21.60;57.40;;;21.82;41.23;95135.03;5033024;28;20209;-50
2023/05/29 09:24:47;;;;;;;0.32;0.32;;;21.60;57.40;;;21.85;40.92;95137.16;5032731;28;20227;-51
2023/05/29 09:27:15;;;;;;;0.40;0.40;;;21.60;57.20;;;21.87;40.70;95138.53;5033472;28;20516;-49
2023/05/29 09:29:45;;;;;;;0.28;0.28;;;21.60;57.00;;;21.89;40.37;95131.06;5033265;28;20203;-48
2023/05/29 09:32:16;;;;;;;0.40;0.40;;;21.70;57.10;;;21.94;40.66;95134.84;5032425;28;20181;-51
2023/05/29 09:34:44;;;;;;;0.30;0.30;;;21.70;57.00;;;21.97;40.60;95136.97;5032731;28;20253;-50
2023/05/29 09:37:13;;;;;;;0.32;0.32;;;21.70;57.00;;;21.99;40.71;95126.84;5031746;28;20205;-48
2023/05/29 09:39:41;;;;;;;0.30;0.30;;;21.70;56.70;;;22.03;40.39;95134.09;5032000;28;20203;-52
2023/05/29 09:42:13;;;;;;;0.30;0.30;;;21.80;56.70;;;22.06;40.34;95132.75;5033042;28;20693;-54
2023/05/29 09:44:41;;;;;;;0.40;0.40;;;21.80;56.60;;;22.09;40.09;95137.56;5032733;28;20260;-48
2023/05/29 09:47:09;;;;;;;0.40;0.40;;;21.90;56.80;;;22.13;40.71;95136.00;5031537;28;20202;-48
2023/05/29 09:49:41;;;;;;;0.30;0.30;;;21.90;56.90;;;22.17;40.26;95138.97;5032182;28;20208;-50
2023/05/29 09:52:14;;;;;;;0.30;0.30;;;21.90;56.70;;;22.20;40.19;95130.41;5031383;28;20202;-50
2023/05/29 09:54:45;;;;;;;0.40;0.40;;;21.90;56.80;;;22.22;40.40;95131.75;5032521;28;20197;-45
2023/05/29 09:57:16;;;;;;;0.30;0.30;;;22.00;58.10;;;22.27;40.27;95135.53;5032917;28;20275;-47
2023/05/29 09:59:45;;;;;;;0.40;0.40;;;22.00;56.90;;;22.28;40.40;95137.94;5032758;28;20191;-50
2023/05/29 10:02:13;;;;;;;0.45;0.45;;;22.00;56.80;;;22.31;40.10;95129.41;5032856;28;20203;-47
2023/05/29 10:04:43;;;;;;;0.30;0.30;;;22.10;56.80;;;22.35;40.31;95133.16;5031472;28;20290;-45
2023/05/29 10:07:33;;;;;;;0.35;0.35;;;22.10;56.80;;;22.37;40.50;95136.41;5031260;28;20195;-47
2023/05/29 10:10:05;;;;;;;0.40;0.40;;;22.10;56.80;;;22.40;40.43;95129.75;5032386;28;20187;-49
2023/05/29 10:12:37;;;;;;;0.32;0.32;;;22.20;56.80;;;22.44;40.36;95136.16;5032277;28;20631;-50
2023/05/29 10:15:13;;;;;;;0.40;0.40;;;22.20;56.80;;;22.46;40.22;95125.22;5031617;28;20194;-48
2023/05/29 10:17:51;;;;;;;0.40;0.40;;;22.20;56.50;;;22.48;39.60;95121.22;5032269;28;20248;-49
2023/05/29 10:20:21;;;;;;;0.30;0.30;;;22.30;56.20;;;22.50;39.94;95127.09;5014933;28;20198;-47
2023/05/29 10:22:51;;;;;;;0.50;0.50;;;22.30;56.10;;;22.55;39.85;95112.97;5031151;28;20537;-47
2023/05/29 10:25:21;;;;;;;0.30;0.30;;;22.30;56.20;;;22.60;39.52;95109.50;5032430;28;20575;-47
2023/05/29 10:27:49;;;;;;;0.35;0.35;;;22.30;56.20;;;22.64;39.80;95114.06;5031053;28;20627;-47
2023/05/29 10:30:37;;;;;;;0.38;0.38;;;22.40;56.30;;;22.67;39.62;95104.72;5031231;28;20249;-55